Phlox, WI

10:10 AM CDT on July 31, 2014 (GMT -0500)
Langlade County (KAIG) Elev 1522 ft | 45.16 °N, 89.11 °W | Change Station

Current weather conditions updated 15 minutes ago

Scattered Clouds
Scattered Clouds
62 °F
Feels Like 62 °F
N
0
Wind Variable Wind from North

Today is forecast to be Warmer than yesterday. Few showers.

Today
High -- | Low -- °F
--% Chance of Precip.
Yesterday
High -- | Low -- °F
Precip. -- in
5:40 AM 8:24 PM
Waxing Crescent, 19% visible
Pressure 30.01 in
Visibility 5.0 miles
Clouds Scattered Clouds 500 ft
Scattered Clouds 800 ft
Dew Point 60 °F
Humidity 94%
Rainfall 0.00 in
Snow Depth Not available.
UV 5 out of 12
Pollen 7.50 out of 12
Air Quality Not available.
Flu Activity Not available.
METAR KAIG 311455Z AUTO 00000KT 5SM BR SCT005 SCT008 17/16 A3001 RMK AO2 T01660156

More Conditions Fewer Conditions

Pressure 30.01 in
Visibility 5.0 miles
Clouds Scattered Clouds 500 ft
Scattered Clouds 800 ft
Dew Point 60 °F
Humidity 94%
Rainfall 0.00 in
Snow Depth Not available.
UV 5 out of 12
Pollen 7.50 out of 12
Air Quality Not available.
Flu Activity Not available.
METAR KAIG 311455Z AUTO 00000KT 5SM BR SCT005 SCT008 17/16 A3001 RMK AO2 T01660156

More Conditions Fewer Conditions

10-Day Weather Forecast

Almanac

Astronomy

Jul. 31, 2014 Rise Set
Actual Time 5:40 AM CDT 8:24 PM CDT
Civil Twilight 5:06 AM CDT 8:57 PM CDT
Nautical Twilight 4:23 AM CDT 9:40 PM CDT
Astronomical Twilight 3:33 AM CDT 10:29 PM CDT
Moon 10:21 AM CDT 10:21 PM CDT
Length of Visible Light 15h 51m
Length of Day
14h 43m
Tomorrow will be 2m 24s shorter.
Waxing Crescent, 19% of the Moon is Illuminated
Today
Waxing Crescent
Aug 3
First Quarter
Aug 10
Full
Aug 17
Last Quarter
Aug 25
New

Today's Extremes

State Highs State Lows

Community

WunderPhotos

Upload Photos

1,739,352 photos uploaded!

Nearby

Snow Depth

Station Depth Elevation
No new snow has been reported.

Earthquake Activity

City Distance Mag. Time & Date
No recent earthquake activity has been reported nearby.
Minimum magnitude displayed is 2.5.

Coastal Water Temperatures

Place Temperature
No Stations Reporting

Nearby Weather Stations

Station Location Temp. Heat Index Dew Point Humidity Wind Precip. Elev Updated Type
Wittenberg Wi., Wittenberg, WI 72.9 °F 75 °F 64 °F 73% SSW  at  1.1 mph 0.00 in / hr 1191 ft 10:10 AM CDT Rapid Fire

Show More Stations Show Fewer Stations